createdAt,value
2023-06-04T00:00:41.603Z,13.56
2023-06-04T00:03:44.396Z,13.57
2023-06-04T00:06:46.619Z,13.62
2023-06-04T00:09:49.859Z,13.47
2023-06-04T00:12:52.032Z,13.32
2023-06-04T00:15:54.391Z,13.46
2023-06-04T00:18:56.560Z,13.52
2023-06-04T00:21:59.105Z,13.27
2023-06-04T00:25:01.261Z,13.40
2023-06-04T00:28:04.278Z,13.57
2023-06-04T00:31:07.522Z,13.51
2023-06-04T00:34:11.357Z,13.54
2023-06-04T00:37:14.163Z,13.64
2023-06-04T00:40:16.693Z,13.83
2023-06-04T00:43:19.958Z,13.66
2023-06-04T00:46:26.800Z,13.59
2023-06-04T00:49:29.170Z,13.66
2023-06-04T00:52:31.784Z,13.66
2023-06-04T00:55:33.927Z,13.74
2023-06-04T00:58:40.255Z,13.78
2023-06-04T01:01:58.338Z,13.87
2023-06-04T01:05:13.225Z,13.99
2023-06-04T01:08:16.443Z,14.11
2023-06-04T01:11:19.178Z,13.97
2023-06-04T01:14:21.409Z,14.06
2023-06-04T01:17:38.575Z,14.12
2023-06-04T01:20:45.624Z,14.14
2023-06-04T01:23:59.401Z,14.10
2023-06-04T01:27:02.991Z,14.17
2023-06-04T01:30:06.460Z,14.19
2023-06-04T01:33:08.564Z,14.22
2023-06-04T01:36:13.374Z,14.10
2023-06-04T01:39:15.435Z,14.15
2023-06-04T01:42:17.815Z,14.11
2023-06-04T01:45:21.830Z,14.16
2023-06-04T01:48:24.291Z,14.18
2023-06-04T01:51:26.361Z,14.16
2023-06-04T01:54:31.088Z,14.21
2023-06-04T01:57:33.343Z,14.13
2023-06-04T02:00:36.319Z,14.13
2023-06-04T02:03:39.123Z,14.24
2023-06-04T02:06:42.051Z,14.16
2023-06-04T02:09:45.528Z,14.20
2023-06-04T02:12:55.918Z,14.16
2023-06-04T02:15:58.608Z,14.16
2023-06-04T02:19:00.719Z,14.15
2023-06-04T02:22:03.286Z,14.07
2023-06-04T02:25:06.491Z,13.96
2023-06-04T02:28:09.386Z,13.93
2023-06-04T02:31:13.771Z,14.05
2023-06-04T02:34:16.613Z,14.10
2023-06-04T02:37:18.782Z,14.00
2023-06-04T02:40:21.269Z,13.90
2023-06-04T02:43:23.371Z,13.84
2023-06-04T02:46:26.025Z,13.88
2023-06-04T02:49:28.539Z,13.87
2023-06-04T02:52:31.707Z,13.83
2023-06-04T02:55:33.820Z,13.77
2023-06-04T02:58:40.251Z,13.85
2023-06-04T03:01:42.479Z,13.88
2023-06-04T03:04:45.350Z,13.86
2023-06-04T03:07:47.746Z,13.87
2023-06-04T03:10:51.608Z,13.88
2023-06-04T03:13:55.212Z,13.99
2023-06-04T03:16:57.631Z,13.83
2023-06-04T03:19:59.745Z,13.63
2023-06-04T03:23:02.248Z,13.59
2023-06-04T03:26:05.019Z,13.51
2023-06-04T03:29:07.515Z,13.56
2023-06-04T03:32:09.663Z,13.62
2023-06-04T03:35:12.815Z,13.94
2023-06-04T03:38:16.200Z,13.96
2023-06-04T03:41:18.934Z,14.30
2023-06-04T03:44:21.269Z,14.30
2023-06-04T03:47:24.118Z,14.02
2023-06-04T03:50:26.544Z,14.15
2023-06-04T03:53:30.548Z,14.17
2023-06-04T03:56:33.381Z,14.44
2023-06-04T03:59:36.206Z,14.59
2023-06-04T04:02:39.275Z,14.51
2023-06-04T04:05:42.563Z,14.54
2023-06-04T04:08:45.455Z,14.45
2023-06-04T04:11:48.176Z,14.49
2023-06-04T04:14:51.054Z,14.56
2023-06-04T04:17:54.104Z,14.60
2023-06-04T04:20:56.958Z,14.90
2023-06-04T04:23:59.817Z,15.17
2023-06-04T04:27:04.562Z,15.26
2023-06-04T04:30:07.871Z,15.43
2023-06-04T04:33:11.786Z,15.79
2023-06-04T04:36:20.498Z,16.35
2023-06-04T04:39:25.262Z,17.32
2023-06-04T04:42:29.157Z,19.63
2023-06-04T04:45:31.669Z,21.78
2023-06-04T04:48:36.140Z,23.46
2023-06-04T04:51:38.284Z,23.29
2023-06-04T04:54:41.182Z,22.34
2023-06-04T04:57:43.617Z,21.27
2023-06-04T05:00:48.715Z,20.40
2023-06-04T05:03:50.933Z,19.63
2023-06-04T05:06:53.680Z,18.98
2023-06-04T05:09:56.405Z,18.60
2023-06-04T05:13:00.150Z,18.32
2023-06-04T05:16:07.777Z,18.32
2023-06-04T05:19:12.021Z,18.29
2023-06-04T05:22:19.683Z,18.11
2023-06-04T05:25:22.777Z,18.14
2023-06-04T05:28:26.205Z,18.04
2023-06-04T05:31:29.173Z,18.34
2023-06-04T05:34:32.107Z,18.08
2023-06-04T05:37:39.242Z,18.16
2023-06-04T05:40:41.760Z,18.30
2023-06-04T05:43:45.699Z,18.35
2023-06-04T05:46:48.383Z,18.60
2023-06-04T05:49:51.407Z,18.78
2023-06-04T05:52:53.998Z,19.02
2023-06-04T05:55:57.054Z,19.03
2023-06-04T05:58:59.642Z,19.11
2023-06-04T06:02:03.618Z,19.45
2023-06-04T06:05:09.278Z,19.63
2023-06-04T06:08:11.612Z,21.16
2023-06-04T06:11:14.583Z,23.57
2023-06-04T06:14:17.098Z,24.12
2023-06-04T06:17:19.624Z,24.02
2023-06-04T06:20:23.135Z,24.21
2023-06-04T06:23:25.915Z,25.48
2023-06-04T06:26:28.217Z,24.91
2023-06-04T06:29:31.272Z,23.90
2023-06-04T06:32:33.587Z,23.40
2023-06-04T06:35:36.223Z,22.53
2023-06-04T06:38:38.722Z,21.88
2023-06-04T06:41:41.506Z,21.57
2023-06-04T06:44:45.219Z,21.47
2023-06-04T06:47:47.751Z,22.36
2023-06-04T06:50:49.811Z,24.29
2023-06-04T06:53:52.230Z,26.37
2023-06-04T06:56:54.388Z,26.63
2023-06-04T06:59:57.066Z,27.89
2023-06-04T07:02:59.514Z,26.54
2023-06-04T07:06:02.127Z,26.73
2023-06-04T07:09:06.593Z,26.64
2023-06-04T07:12:09.093Z,25.96
2023-06-04T07:15:11.251Z,26.49
2023-06-04T07:18:13.832Z,26.76
2023-06-04T07:21:16.831Z,28.53
2023-06-04T07:24:19.224Z,29.44
2023-06-04T07:27:23.252Z,31.33
2023-06-04T07:30:28.955Z,31.86
2023-06-04T07:33:31.111Z,31.11
2023-06-04T07:36:33.943Z,29.51
2023-06-04T07:39:36.116Z,29.77
2023-06-04T07:42:38.569Z,28.87
2023-06-04T07:45:40.697Z,27.25
2023-06-04T07:48:44.020Z,26.72
2023-06-04T07:51:47.230Z,26.08
2023-06-04T07:54:49.585Z,26.65
2023-06-04T07:57:51.820Z,27.20
2023-06-04T08:00:54.597Z,27.49
2023-06-04T08:03:58.586Z,27.34
2023-06-04T08:07:01.091Z,26.65
2023-06-04T08:10:03.729Z,26.45
2023-06-04T08:13:06.004Z,26.80
2023-06-04T08:16:11.032Z,26.01
2023-06-04T08:19:14.131Z,25.45
2023-06-04T08:22:16.647Z,24.96
2023-06-04T08:25:18.869Z,25.57
2023-06-04T08:28:22.097Z,25.67
2023-06-04T08:31:24.167Z,26.05
2023-06-04T08:34:26.548Z,25.83
2023-06-04T08:37:29.254Z,25.81
2023-06-04T08:40:32.285Z,26.52
2023-06-04T08:43:35.398Z,26.61
2023-06-04T08:46:41.714Z,27.22
2023-06-04T08:49:47.610Z,26.20
2023-06-04T08:52:54.579Z,25.42
2023-06-04T08:55:56.839Z,25.06
2023-06-04T08:59:04.433Z,24.85
2023-06-04T09:02:06.776Z,25.25
2023-06-04T09:05:11.835Z,24.55
2023-06-04T09:08:15.204Z,24.49
2023-06-04T09:11:21.092Z,23.79
2023-06-04T09:14:23.392Z,23.90
2023-06-04T09:17:26.482Z,23.54
2023-06-04T09:20:29.556Z,23.22
2023-06-04T09:23:33.040Z,23.28
2023-06-04T09:26:35.920Z,23.03
2023-06-04T09:29:38.295Z,22.67
2023-06-04T09:32:40.400Z,22.83
2023-06-04T09:35:42.872Z,23.01
2023-06-04T09:38:45.118Z,23.10
2023-06-04T09:41:58.136Z,23.16
2023-06-04T09:45:02.423Z,23.37
2023-06-04T09:48:09.484Z,23.66
2023-06-04T09:51:13.200Z,23.70
2023-06-04T09:54:15.629Z,23.31
2023-06-04T09:57:18.601Z,23.17
2023-06-04T10:00:22.178Z,22.99
2023-06-04T10:03:26.740Z,23.00
2023-06-04T10:06:33.865Z,22.68
2023-06-04T10:09:43.505Z,22.58
2023-06-04T10:12:50.981Z,22.65
2023-06-04T10:15:53.612Z,22.58
2023-06-04T10:18:56.688Z,22.52
2023-06-04T10:21:58.772Z,22.38
2023-06-04T10:25:01.541Z,22.40
2023-06-04T10:28:04.798Z,22.55
2023-06-04T10:31:07.450Z,22.58
2023-06-04T10:34:09.848Z,22.48
2023-06-04T10:37:25.585Z,22.54
2023-06-04T10:40:37.317Z,22.56
2023-06-04T10:43:41.136Z,22.53
2023-06-04T10:46:44.171Z,22.53
2023-06-04T10:49:47.098Z,22.58
2023-06-04T10:52:56.416Z,22.53
2023-06-04T10:55:58.821Z,22.88
2023-06-04T10:59:01.734Z,23.06
2023-06-04T11:02:07.844Z,23.27
2023-06-04T11:05:12.076Z,23.31
2023-06-04T11:08:15.548Z,23.51
2023-06-04T11:11:18.093Z,23.85
2023-06-04T11:14:21.616Z,23.78
2023-06-04T11:17:23.834Z,23.81
2023-06-04T11:20:26.586Z,24.00
2023-06-04T11:23:28.840Z,23.98
2023-06-04T11:26:40.282Z,24.05
2023-06-04T11:29:43.384Z,23.96
2023-06-04T11:32:46.223Z,23.90
2023-06-04T11:35:48.294Z,23.94
2023-06-04T11:39:00.941Z,23.78
2023-06-04T11:42:05.785Z,23.95
2023-06-04T11:45:08.755Z,23.87
2023-06-04T11:48:12.025Z,23.39
2023-06-04T11:51:14.699Z,23.20
2023-06-04T11:54:17.703Z,22.66
2023-06-04T11:57:20.094Z,22.61
2023-06-04T12:00:22.604Z,22.41
2023-06-04T12:03:34.833Z,22.30
2023-06-04T12:06:36.966Z,22.25
2023-06-04T12:09:40.376Z,22.17
2023-06-04T12:12:47.185Z,22.06
2023-06-04T12:15:52.276Z,22.10
2023-06-04T12:19:05.175Z,22.11
2023-06-04T12:22:08.563Z,22.23
2023-06-04T12:25:10.774Z,22.18
2023-06-04T12:28:19.436Z,22.22
2023-06-04T12:31:21.891Z,22.38
2023-06-04T12:34:24.482Z,22.66
2023-06-04T12:37:26.955Z,22.81
2023-06-04T12:40:29.560Z,23.19
2023-06-04T12:43:34.655Z,23.29
2023-06-04T12:46:37.443Z,23.47
2023-06-04T12:49:39.685Z,23.74
2023-06-04T12:52:42.402Z,23.93
2023-06-04T12:55:44.461Z,24.35
2023-06-04T12:58:46.859Z,24.00
2023-06-04T13:01:49.036Z,24.19
2023-06-04T13:04:56.233Z,24.41
2023-06-04T13:07:58.878Z,24.32
2023-06-04T13:11:02.561Z,24.36
2023-06-04T13:14:04.859Z,24.14
2023-06-04T13:17:18.035Z,24.06
2023-06-04T13:20:24.379Z,24.05
2023-06-04T13:23:34.332Z,24.26
2023-06-04T13:26:43.872Z,24.50
2023-06-04T13:29:46.264Z,24.63
2023-06-04T13:32:48.650Z,24.62
2023-06-04T13:35:51.588Z,24.81
2023-06-04T13:38:55.975Z,25.13
2023-06-04T13:41:58.461Z,25.16
2023-06-04T13:45:01.443Z,25.05
2023-06-04T13:48:08.246Z,25.10
2023-06-04T13:51:10.827Z,24.87
2023-06-04T13:54:13.570Z,24.79
2023-06-04T13:57:15.748Z,24.60
2023-06-04T14:00:18.207Z,24.66
2023-06-04T14:03:21.252Z,24.54
2023-06-04T14:06:23.586Z,24.44
2023-06-04T14:09:25.981Z,24.33
2023-06-04T14:12:28.038Z,24.35
2023-06-04T14:15:30.383Z,24.21
2023-06-04T14:18:32.462Z,24.08
2023-06-04T14:21:34.809Z,23.98
2023-06-04T14:24:39.338Z,23.88
2023-06-04T14:27:41.983Z,23.87
2023-06-04T14:30:44.034Z,23.65
2023-06-04T14:33:46.500Z,23.66
2023-06-04T14:36:49.176Z,23.54
2023-06-04T14:39:51.547Z,23.38
2023-06-04T14:42:53.842Z,23.15
2023-06-04T14:45:56.393Z,23.08
2023-06-04T14:48:59.063Z,23.04
2023-06-04T14:52:01.792Z,23.04
2023-06-04T14:55:03.959Z,23.00
2023-06-04T14:58:06.537Z,23.02
2023-06-04T15:01:11.405Z,22.87
2023-06-04T15:04:13.969Z,22.92
2023-06-04T15:07:16.118Z,22.85
2023-06-04T15:10:18.463Z,22.87
2023-06-04T15:13:20.498Z,22.78
2023-06-04T15:16:23.217Z,22.81
2023-06-04T15:19:25.355Z,22.82
2023-06-04T15:22:28.440Z,22.81
2023-06-04T15:25:30.771Z,22.81
2023-06-04T15:28:33.654Z,22.94
2023-06-04T15:31:35.817Z,22.92
2023-06-04T15:34:38.260Z,22.86
2023-06-04T15:37:40.851Z,22.81
2023-06-04T15:40:43.266Z,22.80
2023-06-04T15:43:45.425Z,22.56
2023-06-04T15:46:48.288Z,22.61
2023-06-04T15:49:50.404Z,22.37
2023-06-04T15:52:53.015Z,22.28
2023-06-04T15:55:55.688Z,22.47
2023-06-04T15:58:58.246Z,22.49
2023-06-04T16:02:02.841Z,22.43
2023-06-04T16:05:06.037Z,22.35
2023-06-04T16:08:08.288Z,22.37
2023-06-04T16:11:10.832Z,22.27
2023-06-04T16:14:13.371Z,22.24
2023-06-04T16:17:15.799Z,22.19
2023-06-04T16:20:19.461Z,22.19
2023-06-04T16:23:22.368Z,22.18
2023-06-04T16:26:25.054Z,22.02
2023-06-04T16:29:27.351Z,21.95
2023-06-04T16:32:29.475Z,22.00
2023-06-04T16:35:33.041Z,21.98
2023-06-04T16:38:35.270Z,21.90
2023-06-04T16:41:37.997Z,21.91
2023-06-04T16:44:40.644Z,21.87
2023-06-04T16:47:44.238Z,21.75
2023-06-04T16:50:46.293Z,21.68
2023-06-04T16:53:48.655Z,21.64
2023-06-04T16:56:51.134Z,21.51
2023-06-04T16:59:53.822Z,21.33
2023-06-04T17:02:57.486Z,21.32
2023-06-04T17:06:00.172Z,21.21
2023-06-04T17:09:02.459Z,21.22
2023-06-04T17:12:05.175Z,21.14
2023-06-04T17:15:07.541Z,21.23
2023-06-04T17:18:12.856Z,21.08
2023-06-04T17:21:18.041Z,20.99
2023-06-04T17:24:20.459Z,20.88
2023-06-04T17:27:22.701Z,20.84
2023-06-04T17:30:25.600Z,20.85
2023-06-04T17:33:27.640Z,20.75
2023-06-04T17:36:30.088Z,20.71
2023-06-04T17:39:33.626Z,20.66
2023-06-04T17:42:35.998Z,20.57
2023-06-04T17:45:38.038Z,20.55
2023-06-04T17:48:40.460Z,20.53
2023-06-04T17:51:42.601Z,20.58
2023-06-04T17:54:45.500Z,20.56
2023-06-04T17:57:47.723Z,20.64
2023-06-04T18:00:50.694Z,20.57
2023-06-04T18:03:53.347Z,20.48
2023-06-04T18:06:57.233Z,20.46
2023-06-04T18:10:01.547Z,20.48
2023-06-04T18:13:04.402Z,20.46
2023-06-04T18:16:08.118Z,20.44
2023-06-04T18:19:10.576Z,20.45
2023-06-04T18:22:13.679Z,20.41
2023-06-04T18:25:15.861Z,20.33
2023-06-04T18:28:18.498Z,20.38
2023-06-04T18:31:23.481Z,20.37
2023-06-04T18:34:29.462Z,20.35
2023-06-04T18:37:32.282Z,20.29
2023-06-04T18:40:34.682Z,20.21
2023-06-04T18:43:38.112Z,20.27
2023-06-04T18:46:40.628Z,20.14
2023-06-04T18:49:42.890Z,20.07
2023-06-04T18:52:48.123Z,20.06
2023-06-04T18:55:50.224Z,20.01
2023-06-04T18:58:53.986Z,20.01
2023-06-04T19:01:57.116Z,19.92
2023-06-04T19:04:59.573Z,19.91
2023-06-04T19:08:05.054Z,19.91
2023-06-04T19:11:08.077Z,19.83
2023-06-04T19:14:10.556Z,19.78
2023-06-04T19:17:19.869Z,19.79
2023-06-04T19:20:23.060Z,19.79
2023-06-04T19:23:25.777Z,19.72
2023-06-04T19:26:27.886Z,19.72
2023-06-04T19:29:30.212Z,19.75
2023-06-04T19:32:32.609Z,19.62
2023-06-04T19:35:35.003Z,19.55
2023-06-04T19:38:38.765Z,19.51
2023-06-04T19:41:41.153Z,19.50
2023-06-04T19:44:43.801Z,19.60
2023-06-04T19:47:46.405Z,19.51
2023-06-04T19:50:48.985Z,19.48
2023-06-04T19:53:51.515Z,19.44
2023-06-04T19:56:53.550Z,19.38
2023-06-04T19:59:56.191Z,19.30
2023-06-04T20:02:58.553Z,19.27
2023-06-04T20:06:01.622Z,19.32
2023-06-04T20:09:04.934Z,19.33
2023-06-04T20:12:08.093Z,19.29
2023-06-04T20:15:10.607Z,19.26
2023-06-04T20:18:13.203Z,19.19
2023-06-04T20:21:15.439Z,19.13
2023-06-04T20:24:19.522Z,19.09
2023-06-04T20:27:24.983Z,19.09
2023-06-04T20:30:27.691Z,19.10
2023-06-04T20:33:30.043Z,19.06
2023-06-04T20:36:33.796Z,19.14
2023-06-04T20:39:40.271Z,19.11
2023-06-04T20:42:42.643Z,19.09
2023-06-04T20:45:44.713Z,19.05
2023-06-04T20:48:47.365Z,19.01
2023-06-04T20:51:49.477Z,19.05
2023-06-04T20:54:51.868Z,19.02
2023-06-04T20:57:53.891Z,19.03
2023-06-04T21:00:56.608Z,19.03
2023-06-04T21:04:01.261Z,18.97
2023-06-04T21:07:04.639Z,18.94
2023-06-04T21:10:06.881Z,18.95
2023-06-04T21:13:09.296Z,18.90
2023-06-04T21:16:11.510Z,18.88
2023-06-04T21:19:13.952Z,18.83
2023-06-04T21:22:16.139Z,18.82
2023-06-04T21:25:18.656Z,18.71
2023-06-04T21:28:20.750Z,18.72
2023-06-04T21:31:23.225Z,18.67
2023-06-04T21:34:25.427Z,18.61
2023-06-04T21:37:27.890Z,18.63
2023-06-04T21:40:29.937Z,18.60
2023-06-04T21:43:32.497Z,18.60
2023-06-04T21:46:36.198Z,18.52
2023-06-04T21:49:38.759Z,18.48
2023-06-04T21:52:41.132Z,18.48
2023-06-04T21:55:43.623Z,18.37
2023-06-04T21:58:46.514Z,18.42
2023-06-04T22:01:49.414Z,18.50
2023-06-04T22:04:51.967Z,18.42
2023-06-04T22:07:54.141Z,18.43
2023-06-04T22:10:57.613Z,18.35
2023-06-04T22:13:59.648Z,18.33
2023-06-04T22:17:02.080Z,18.30
2023-06-04T22:20:04.494Z,18.26
2023-06-04T22:23:07.062Z,18.31
2023-06-04T22:26:10.048Z,18.29
2023-06-04T22:29:17.785Z,18.37
2023-06-04T22:32:19.976Z,18.29
2023-06-04T22:35:23.264Z,18.11
2023-06-04T22:38:25.969Z,18.11
2023-06-04T22:41:28.814Z,18.09
2023-06-04T22:44:30.907Z,18.10
2023-06-04T22:47:33.685Z,18.12
2023-06-04T22:50:38.151Z,18.07
2023-06-04T22:53:40.934Z,18.03
2023-06-04T22:56:42.967Z,18.06
2023-06-04T22:59:46.305Z,18.01
2023-06-04T23:02:48.517Z,18.01
2023-06-04T23:05:51.094Z,17.98
2023-06-04T23:08:57.951Z,18.02
2023-06-04T23:12:00.416Z,18.04
2023-06-04T23:15:03.376Z,17.98
2023-06-04T23:18:06.371Z,17.92
2023-06-04T23:21:08.787Z,17.90
2023-06-04T23:24:11.586Z,17.99
2023-06-04T23:27:15.978Z,17.94
2023-06-04T23:30:20.395Z,17.99
2023-06-04T23:33:22.448Z,17.88
2023-06-04T23:36:24.866Z,17.95
2023-06-04T23:39:30.349Z,17.90
2023-06-04T23:42:33.407Z,17.83
2023-06-04T23:45:35.455Z,17.79
2023-06-04T23:48:37.872Z,17.77
2023-06-04T23:51:40.057Z,17.79
2023-06-04T23:54:42.676Z,17.86
2023-06-04T23:57:44.877Z,17.81
